LFMN/NCE METAR and TAF weather

Enter ICAO airport designator
Station Type Date Time Source
LFMN METAR 2021/07/26 14:30 UTC NOAA

LFMN 261430Z 10005KT 9999 FEW011 FEW040CB 27/23 Q1012 NOSIG


Station Type Date Time Source
LFMN Decoded METAR 2021/07/26 14:30 UTC NOAA

Nice, France (LFMN) 43-39N 007-12E 10M
Jul 26, 2021 - 10:30 AM EDT / 2021.07.26 1430 UTC
Wind: from the E (100 degrees) at 6 MPH (5 KT):0
Visibility: greater than 7 mile(s):0
Sky conditions: mostly clear
Weather: Cumulonimbus clouds observed
Temperature: 80 F (27 C)
Dew Point: 73 F (23 C)
Relative Humidity: 78%
Pressure (altimeter): 29.88 in. Hg (1012 hPa)
ob: LFMN 261430Z 10005KT 9999 FEW011 FEW040CB 27/23 Q1012 NOSIG
cycle: 14

Station Type Date Time Source
LFMN TAF 2021/07/26 15:45 UTC NOAA

TAF TAF LFMN 261400Z 2615/2721 12010KT 9999 FEW012 FEW050CB PROB40
TEMPO 2615/2617 TS
BECMG 2618/2620 VRB04KT NSC
TEMPO 2623/2706 BKN013 PROB40
TEMPO 2702/2706 33010KT
BECMG 2707/2710 12010KT CAVOK PROB30
TEMPO 2712/2717 FEW060TCU
BECMG 2717/2720 VRB04KT

Example: see airport list